AirNav   Textron
 
 744 users online  

44L Wilshire Area Heliport
Los Angeles, California, USA

GOING TO LOS ANGELES?


FAA INFORMATION EFFECTIVE 12 OCTOBER 2017

Location

FAA Identifier: 44L
Lat/Long: 34-02-50.1000N / 118-20-34.4000W
34-02.835000N / 118-20.573333W
34.0472500 / -118.3428889
(estimated)
Elevation: 150 ft. / 46 m (estimated)
Variation: 14E (1985)
From city: 6 miles E of LOS ANGELES, CA
Time zone: UTC -7 (UTC -8 during Standard Time)
Zip code: 90019

Heliport Operations

Heliport use: Private use. Permission required prior to landing
Activation date: 06/1974
Control tower: no
ARTCC: LOS ANGELES CENTER
FSS: HAWTHORNE FLIGHT SERVICE STATION
Attendance: CONTINUOUS
Wind indicator: yes
Segmented circle: no
Lights: FOR PERIMETER LGTS; PHONE 213-485-2600.

Heliport Communications

UNICOM: 123.05
WX ASOS at SMO (6 nm W): PHONE 310-392-6453
WX ASOS at LAX (7 nm SW): PHONE 310-568-1486
WX ASOS at HHR (7 nm S): PHONE 310-973-8930
WX ASOS at BUR (9 nm N): PHONE 818-841-1384
WX AWOS-3PT at CPM (11 nm SE): 127.150 (310-631-4958)
WX ASOS at VNY (12 nm NW): PHONE 818-904-9213
WX AWOS-3PT at WHP (13 nm N): 132.1 (818-899-9820)
WX AWOS-3PT at EMT (15 nm E): 118.75 ((626) 444-1107)
WX ASOS at LGB (17 nm SE): PHONE 562-424-0572

Nearby radio navigation aids

VOR radial/distance  VOR name  Freq  Var
SMOr054/6.1SANTA MONICA VOR/DME110.8015E
LAXr018/8.2LOS ANGELES VORTAC113.6015E
VNYr130/12.9VAN NUYS VOR/DME113.1015E
SLIr303/21.4SEAL BEACH VORTAC115.7015E
POMr251/27.7POMONA VORTAC110.4015E
FIMr110/32.5FILLMORE VORTAC112.5015E
VTUr082/35.3VENTURA VOR/DME108.2015E
PMDr187/37.7PALMDALE VORTAC114.5015E
ELBr292/37.8EL TORO VOR/DME117.2014E
CMAr090/38.6CAMARILLO VOR/DME115.8015E
LHSr148/39.9LAKE HUGHES VORTAC108.4015E

 
NDB name  Hdg/Dist  Freq  Var  ID
EL MONTE246/15.735915EEMT . -- -

Heliport Services

Airframe service: NONE
Powerplant service: NONE

Runway Information

Helipad H1

Dimensions: 50 x 40 ft. / 15 x 12 m
Surface: concrete
Runway edge lights: PERIMETER LGTS.
Latitude: 34-02.835000N
Longitude: 118-20.573333W
Elevation: 150.0 ft.
Traffic pattern: leftleft

Heliport Ownership and Management from official FAA records

Ownership: Publicly-owned
Owner: CITY OF LOS ANGELES
555 RAMIREZ ST.SPACE 475
LOS ANGELES, CA 90012
Manager: C.O.-AIR SUPPORT DIV-LAPD
150 N. LOS ANGELES STREET
LOS ANGELES, CA 90012
Phone 213-485-2600

Additional Remarks

A52-H1 UNLGTD/UNMKD PLINES SOUTH & TREES WEST.
RSTRD LNDG POLICE BUS ONLY. PHONE AIR SUPPORT DIV WATCH COMMANDER 213-485-2600 FOR APVL PRIOR TO FLIGHT; THEN CTC KMB7 ON 123.050 PRIOR TO LNDG AT HELI.

Instrument Procedures

There are no published instrument procedures at 44L.

Some nearby airports with instrument procedures:

KSMO - Santa Monica Municipal Airport (6 nm W)
KLAX - Los Angeles International Airport (7 nm SW)
KHHR - Jack Northrop Field/Hawthorne Municipal Airport (7 nm S)
KBUR - Bob Hope Airport (9 nm N)
KVNY - Van Nuys Airport (12 nm NW)
KWHP - Whiteman Airport (13 nm N)
KTOA - Zamperini Field Airport (15 nm S)
KEMT - San Gabriel Valley Airport (15 nm E)
KLGB - Long Beach Airport (Daugherty Field) (17 nm SE)
 
Loc | Ops | Rwys | IFR | FBO | Links
Com | Nav | Svcs | Stats | Notes


 
Area around 44L (Wilshire Area Heliport)
 
Road maps at: MapQuest Bing Google
 
Aerial photo
No photo
 
Sectional chart

 
Airport distance calculator
Flying to Wilshire Area Heliport? Find the distance to fly.

From to 44L

Sunrise and sunset
Times for 18-Oct-2017
 Local
(UTC-7)
 Zulu
(UTC)
Morning civil twilight06:3713:37
Sunrise07:0214:02
Sunset18:1501:15
Evening civil twilight18:4001:40

Current date and time
Zulu (UTC)  19-Oct-2017 03:38:46
Local (UTC-7)  18-Oct-2017 20:38:46
 
METAR
KCQT 
5nm E 
190247Z AUTO 00000KT 10SM CLR 22/15 A2989 RMK AO2 SLP117 T02220150 53001
KSMO 
6nm W 
190251Z VRB05KT 9SM CLR 19/17 A2989 RMK AO2 SLP121 T01940172 53001
KLAX 
7nm S 
190253Z 24009KT 10SM CLR 20/16 A2989 RMK AO2 SLP120 T02000161 53001
KHHR 
8nm S 
190253Z 24005KT 10SM CLR 22/14 A2989 RMK AO2 SLP122 T02170144 53001
KBUR 
9nm N 
190253Z 00000KT 10SM CLR 23/11 A2989 RMK AO2 SLP109 T02280106 53001
KVNY 
12nm NW 
190251Z 10004KT 10SM CLR 22/12 A2989 RMK AO2 SLP114 T02220117 53003
KWHP 
13nm N 
182255Z 12008KT 10SM SKC 29/06 A2994
KTOA 
16nm S 
190247Z 27006KT 10SM SKC 20/13 A2990 RMK LAST
KEMT 
16nm E 
190255Z VRB06KT 10SM CLR 24/09 A2991
KLGB 
17nm SE 
190253Z 30009KT 10SM CLR 23/11 A2990 RMK AO2 SLP123 T02330111 53006
TAF
KSMO 
6nm W 
181739Z 1818/1918 VRB04KT P6SM SKC FM181900 23008KT P6SM SCT200 FM190200 VRB03KT P6SM SKC FM190800 VRB03KT 2SM BR OVC004
KLAX 
7nm S 
182059Z 1821/1924 27013KT P6SM FEW045 SCT080 FM190300 VRB03KT P6SM SKC FM190700 VRB03KT 2SM BR OVC004 FM191400 VRB03KT 3SM BR OVC006 FM191800 26006KT 4SM HZ SCT006 FM192000 26012KT 5SM HZ SKC
KBUR 
9nm N 
181739Z 1818/1918 15003KT P6SM SKC FM182000 18008KT P6SM SCT200 FM190100 13006KT P6SM SKC FM190400 VRB03KT P6SM SKC FM191400 VRB03KT 5SM HZ SKC
KVNY 
12nm NW 
181739Z 1818/1918 00000KT P6SM FEW100 FM182000 15008KT P6SM SCT200 FM190300 VRB03KT P6SM SKC
KLGB 
17nm SE 
181739Z 1818/1918 13006KT P6SM SKC FM181900 19008KT P6SM SCT200 FM182300 29008KT P6SM SCT200 FM190400 VRB03KT P6SM SKC FM190700 VRB03KT 3SM BR OVC005
NOTAMs
Click for the latest NOTAMs
NOTAMs are issued by the DoD/FAA and will open in a separate window not controlled by AirNav.

 

 
 

Would you like to see your business listed on this page?

 If your business provides an interesting product or service to pilots, flight crews, aircraft, or users of the Wilshire Area Heliport, you should consider listing it here.  To start the listing process, click on the button below
 
Add a business
 

Other Pages about Wilshire Area Heliport

Update a link
 
Copyright © AirNav, LLC. All rights reserved. Privacy Policy  Contact